DADDY VIDP-VISM
Flight info
| Callsign | DADDY |
|---|---|
| Flight time | 0h 26m |
| Altitude | 26000 |
| Route | SP J78 SLA |
| Aircraft | C700/M-SBDGHM1RWXY/LB2 |
Departure
| Time | 2026-04-25 10:39 |
|---|---|
| Airport | Indira Gandhi International Airport (VIDP) |
Arrival
| Time | 2026-04-25 11:05 |
|---|---|
| Airport | Shimla Airport (VISM) |
| Time | Latitude | Longitude | Altitude | Speed | Heading |
|---|---|---|---|---|---|
| 2026-04-25 10:33 | 28.56776 | 77.11602 | 758 ft | 0 kts | 261° |
| 2026-04-25 10:36 | 28.56775 | 77.11601 | 758 ft | 1 kts | 261° |
| 2026-04-25 10:36 | 28.56774 | 77.11572 | 755 ft | 7 kts | 274° |
| 2026-04-25 10:36 | 28.56813 | 77.11536 | 757 ft | 7 kts | 0° |
| 2026-04-25 10:36 | 28.56842 | 77.11582 | 756 ft | 9 kts | 91° |
| 2026-04-25 10:37 | 28.56840 | 77.11667 | 758 ft | 12 kts | 91° |
| 2026-04-25 10:37 | 28.56838 | 77.11760 | 758 ft | 9 kts | 85° |
| 2026-04-25 10:37 | 28.56879 | 77.11755 | 758 ft | 7 kts | 340° |
| 2026-04-25 10:37 | 28.56933 | 77.11717 | 756 ft | 11 kts | 324° |
| 2026-04-25 10:38 | 28.56991 | 77.11641 | 755 ft | 15 kts | 289° |
| 2026-04-25 10:38 | 28.56998 | 77.11435 | 756 ft | 64 kts | 271° |
| 2026-04-25 10:38 | 28.57020 | 77.10535 | 743 ft | 158 kts | 269° |
| 2026-04-25 10:38 | 28.57044 | 77.09045 | 989 ft | 211 kts | 272° |
| 2026-04-25 10:39 | 28.57278 | 77.07275 | 1879 ft | 233 kts | 296° |
| 2026-04-25 10:39 | 28.58461 | 77.06056 | 3340 ft | 235 kts | 332° |
| 2026-04-25 10:39 | 28.60022 | 77.05544 | 4835 ft | 236 kts | 353° |
| 2026-04-25 10:39 | 28.61661 | 77.05534 | 6299 ft | 233 kts | 355° |
| 2026-04-25 10:40 | 28.63266 | 77.05403 | 7740 ft | 229 kts | 350° |
| 2026-04-25 10:40 | 28.64852 | 77.05165 | 9166 ft | 234 kts | 349° |
| 2026-04-25 10:40 | 28.66614 | 77.04892 | 9744 ft | 275 kts | 349° |
| 2026-04-25 10:40 | 28.67894 | 77.04709 | 9764 ft | 286 kts | 351° |
| 2026-04-25 10:41 | 28.70529 | 77.04362 | 11653 ft | 286 kts | 351° |
| 2026-04-25 10:41 | 28.72539 | 77.04073 | 13041 ft | 297 kts | 350° |
| 2026-04-25 10:41 | 28.74611 | 77.03776 | 14387 ft | 303 kts | 351° |
| 2026-04-25 10:41 | 28.76724 | 77.03480 | 15736 ft | 309 kts | 351° |
| 2026-04-25 10:42 | 28.78881 | 77.03180 | 17074 ft | 315 kts | 351° |
| 2026-04-25 10:42 | 28.81080 | 77.02869 | 18332 ft | 322 kts | 351° |
| 2026-04-25 10:42 | 28.83328 | 77.02552 | 19469 ft | 328 kts | 351° |
| 2026-04-25 10:42 | 28.85610 | 77.02231 | 20611 ft | 333 kts | 351° |
| 2026-04-25 10:43 | 28.87933 | 77.01904 | 21734 ft | 339 kts | 351° |
| 2026-04-25 10:43 | 28.90319 | 77.01790 | 22807 ft | 348 kts | 1° |
| 2026-04-25 10:43 | 28.92767 | 77.02233 | 23457 ft | 370 kts | 12° |
| 2026-04-25 10:43 | 28.95277 | 77.03220 | 23962 ft | 387 kts | 17° |
| 2026-04-25 10:44 | 28.97825 | 77.04227 | 24961 ft | 389 kts | 15° |
| 2026-04-25 10:44 | 28.99535 | 77.04869 | 25570 ft | 394 kts | 15° |
| 2026-04-25 10:44 | 29.02235 | 77.05884 | 25781 ft | 421 kts | 16° |
| 2026-04-25 10:44 | 29.06081 | 77.07390 | 25788 ft | 456 kts | 17° |
| 2026-04-25 10:45 | 29.09107 | 77.08584 | 25793 ft | 464 kts | 17° |
| 2026-04-25 10:45 | 29.11183 | 77.09389 | 25796 ft | 466 kts | 16° |
| 2026-04-25 10:45 | 29.14232 | 77.10561 | 25793 ft | 467 kts | 16° |
| 2026-04-25 10:45 | 29.17315 | 77.11758 | 25794 ft | 467 kts | 17° |
| 2026-04-25 10:46 | 29.20394 | 77.12962 | 25796 ft | 467 kts | 17° |
| 2026-04-25 10:46 | 29.23469 | 77.14162 | 25797 ft | 467 kts | 16° |
| 2026-04-25 10:46 | 29.26551 | 77.15358 | 25794 ft | 467 kts | 17° |
| 2026-04-25 10:46 | 29.29594 | 77.16541 | 25796 ft | 467 kts | 17° |
| 2026-04-25 10:47 | 29.32674 | 77.17745 | 25795 ft | 467 kts | 17° |
| 2026-04-25 10:47 | 29.35759 | 77.18951 | 25792 ft | 467 kts | 17° |
| 2026-04-25 10:47 | 29.38832 | 77.20149 | 25788 ft | 467 kts | 17° |
| 2026-04-25 10:47 | 29.41905 | 77.21349 | 25783 ft | 466 kts | 17° |
| 2026-04-25 10:48 | 29.44985 | 77.22551 | 25781 ft | 467 kts | 17° |
| 2026-04-25 10:48 | 29.48026 | 77.23743 | 25783 ft | 466 kts | 17° |
| 2026-04-25 10:48 | 29.51097 | 77.24948 | 25781 ft | 466 kts | 17° |
| 2026-04-25 10:48 | 29.54170 | 77.26149 | 25779 ft | 466 kts | 17° |
| 2026-04-25 10:49 | 29.57246 | 77.27353 | 25776 ft | 466 kts | 17° |
| 2026-04-25 10:49 | 29.60315 | 77.28558 | 25779 ft | 466 kts | 17° |
| 2026-04-25 10:49 | 29.63387 | 77.29765 | 25775 ft | 466 kts | 17° |
| 2026-04-25 10:49 | 29.66459 | 77.30970 | 25774 ft | 466 kts | 17° |
| 2026-04-25 10:50 | 29.69538 | 77.32179 | 25770 ft | 466 kts | 17° |
| 2026-04-25 10:50 | 29.72605 | 77.33388 | 25768 ft | 465 kts | 17° |
| 2026-04-25 10:50 | 29.75634 | 77.34580 | 25767 ft | 466 kts | 17° |
| 2026-04-25 10:50 | 29.78706 | 77.35786 | 25762 ft | 466 kts | 17° |
| 2026-04-25 10:51 | 29.81770 | 77.36994 | 25761 ft | 466 kts | 17° |
| 2026-04-25 10:51 | 29.84846 | 77.38208 | 25762 ft | 466 kts | 17° |
| 2026-04-25 10:51 | 29.87920 | 77.39421 | 25758 ft | 466 kts | 17° |
| 2026-04-25 10:51 | 29.90992 | 77.40633 | 25758 ft | 466 kts | 17° |
| 2026-04-25 10:52 | 29.94083 | 77.41783 | 25767 ft | 465 kts | 13° |
| 2026-04-25 10:52 | 29.97259 | 77.42418 | 25778 ft | 464 kts | 4° |
| 2026-04-25 10:52 | 30.00435 | 77.42517 | 25775 ft | 462 kts | 356° |
| 2026-04-25 10:52 | 30.03626 | 77.42072 | 25774 ft | 461 kts | 347° |
| 2026-04-25 10:53 | 30.06727 | 77.41124 | 25775 ft | 460 kts | 342° |
| 2026-04-25 10:53 | 30.09803 | 77.40079 | 25769 ft | 461 kts | 342° |
| 2026-04-25 10:53 | 30.12887 | 77.39053 | 25773 ft | 460 kts | 342° |
| 2026-04-25 10:53 | 30.15926 | 77.38024 | 25773 ft | 460 kts | 342° |
| 2026-04-25 10:54 | 30.19037 | 77.36958 | 25773 ft | 460 kts | 342° |
| 2026-04-25 10:54 | 30.21072 | 77.36266 | 25775 ft | 460 kts | 342° |
| 2026-04-25 10:54 | 30.25139 | 77.35043 | 25548 ft | 433 kts | 345° |
| 2026-04-25 10:54 | 30.28000 | 77.34294 | 24384 ft | 424 kts | 346° |
| 2026-04-25 10:55 | 30.30847 | 77.33512 | 23219 ft | 417 kts | 344° |
| 2026-04-25 10:55 | 30.33632 | 77.32675 | 21923 ft | 410 kts | 343° |
| 2026-04-25 10:55 | 30.36377 | 77.31863 | 20682 ft | 404 kts | 344° |
| 2026-04-25 10:55 | 30.39093 | 77.31097 | 19490 ft | 398 kts | 344° |
| 2026-04-25 10:56 | 30.41765 | 77.30343 | 18560 ft | 390 kts | 344° |
| 2026-04-25 10:56 | 30.44307 | 77.29608 | 18316 ft | 363 kts | 343° |
| 2026-04-25 10:56 | 30.46663 | 77.28923 | 18252 ft | 335 kts | 343° |
| 2026-04-25 10:56 | 30.48892 | 77.28279 | 17667 ft | 328 kts | 343° |
| 2026-04-25 10:57 | 30.51078 | 77.27650 | 16984 ft | 325 kts | 343° |
| 2026-04-25 10:57 | 30.53261 | 77.27021 | 16332 ft | 321 kts | 344° |
| 2026-04-25 10:57 | 30.55416 | 77.26400 | 15690 ft | 317 kts | 344° |
| 2026-04-25 10:57 | 30.57545 | 77.25779 | 15086 ft | 313 kts | 344° |
| 2026-04-25 10:58 | 30.59658 | 77.25169 | 14496 ft | 310 kts | 344° |
| 2026-04-25 10:58 | 30.61741 | 77.24571 | 13902 ft | 307 kts | 344° |
| 2026-04-25 10:58 | 30.63804 | 77.23974 | 13295 ft | 303 kts | 344° |
| 2026-04-25 10:58 | 30.65808 | 77.23387 | 12639 ft | 300 kts | 344° |
| 2026-04-25 10:59 | 30.67820 | 77.22808 | 12008 ft | 297 kts | 344° |
| 2026-04-25 10:59 | 30.69812 | 77.22232 | 11447 ft | 293 kts | 344° |
| 2026-04-25 10:59 | 30.71787 | 77.21661 | 10857 ft | 291 kts | 343° |
| 2026-04-25 10:59 | 30.73738 | 77.21096 | 10286 ft | 288 kts | 343° |
| 2026-04-25 11:00 | 30.75678 | 77.20528 | 9746 ft | 286 kts | 343° |
| 2026-04-25 11:00 | 30.77608 | 77.19969 | 9188 ft | 285 kts | 343° |
| 2026-04-25 11:00 | 30.79531 | 77.19414 | 8630 ft | 283 kts | 343° |
| 2026-04-25 11:00 | 30.81431 | 77.18859 | 8168 ft | 280 kts | 342° |
| 2026-04-25 11:01 | 30.83315 | 77.18307 | 7631 ft | 278 kts | 342° |
| 2026-04-25 11:01 | 30.85192 | 77.17771 | 7141 ft | 275 kts | 342° |
| 2026-04-25 11:01 | 30.86990 | 77.17255 | 7001 ft | 266 kts | 341° |
| 2026-04-25 11:01 | 30.88795 | 77.16706 | 7012 ft | 270 kts | 340° |
| 2026-04-25 11:02 | 30.90625 | 77.16173 | 7027 ft | 273 kts | 342° |
| 2026-04-25 11:02 | 30.92503 | 77.15657 | 7037 ft | 274 kts | 342° |
| 2026-04-25 11:02 | 30.94316 | 77.15118 | 7058 ft | 263 kts | 341° |
| 2026-04-25 11:02 | 30.96054 | 77.14606 | 7057 ft | 253 kts | 341° |
| 2026-04-25 11:03 | 30.97718 | 77.14131 | 7063 ft | 239 kts | 341° |
| 2026-04-25 11:03 | 30.99251 | 77.13623 | 7074 ft | 219 kts | 333° |
| 2026-04-25 11:03 | 31.00519 | 77.12798 | 7097 ft | 207 kts | 322° |
| 2026-04-25 11:03 | 31.01687 | 77.11863 | 7085 ft | 199 kts | 324° |
| 2026-04-25 11:04 | 31.02840 | 77.10984 | 7116 ft | 191 kts | 323° |
| 2026-04-25 11:04 | 31.03945 | 77.10092 | 7123 ft | 195 kts | 319° |
| 2026-04-25 11:04 | 31.04971 | 77.09272 | 7107 ft | 152 kts | 321° |
| 2026-04-25 11:04 | 31.05538 | 77.08858 | 7093 ft | 141 kts | 322° |
| 2026-04-25 11:05 | 31.06717 | 77.07990 | 5486 ft | 158 kts | 322° |
| 2026-04-25 11:05 | 31.07525 | 77.07336 | 5113 ft | 140 kts | 319° |
| 2026-04-25 11:05 | 31.08259 | 77.06696 | 5034 ft | 105 kts | 303° |
| 2026-04-25 11:05 | 31.08630 | 77.06424 | 5047 ft | 43 kts | 329° |
| 2026-04-25 11:06 | 31.08724 | 77.06396 | 5047 ft | 12 kts | 34° |
| 2026-04-25 11:06 | 31.08749 | 77.06416 | 5048 ft | 0 kts | 34° |